sensor_id;sensor_type;location;lat;lon;timestamp;P1;durP1;ratioP1;P2;durP2;ratioP2
4047;SDS011;2038;51.728;6.674;2023-03-21T00:02:01;22.10;;;12.10;;
4047;SDS011;2038;51.728;6.674;2023-03-21T00:04:27;33.20;;;13.30;;
4047;SDS011;2038;51.728;6.674;2023-03-21T00:06:53;19.93;;;12.60;;
4047;SDS011;2038;51.728;6.674;2023-03-21T00:09:20;20.83;;;12.67;;
4047;SDS011;2038;51.728;6.674;2023-03-21T00:11:46;22.07;;;14.13;;
4047;SDS011;2038;51.728;6.674;2023-03-21T00:14:13;20.13;;;13.07;;
4047;SDS011;2038;51.728;6.674;2023-03-21T00:16:42;30.93;;;14.57;;
4047;SDS011;2038;51.728;6.674;2023-03-21T00:19:10;24.87;;;13.10;;
4047;SDS011;2038;51.728;6.674;2023-03-21T00:21:38;27.30;;;13.77;;
4047;SDS011;2038;51.728;6.674;2023-03-21T00:24:07;31.30;;;15.07;;
4047;SDS011;2038;51.728;6.674;2023-03-21T00:26:33;20.67;;;12.23;;
4047;SDS011;2038;51.728;6.674;2023-03-21T00:29:00;25.13;;;13.10;;
4047;SDS011;2038;51.728;6.674;2023-03-21T00:31:26;27.10;;;14.13;;
4047;SDS011;2038;51.728;6.674;2023-03-21T00:33:52;20.73;;;11.73;;
4047;SDS011;2038;51.728;6.674;2023-03-21T00:36:17;22.33;;;12.43;;
4047;SDS011;2038;51.728;6.674;2023-03-21T00:38:43;25.10;;;12.70;;
4047;SDS011;2038;51.728;6.674;2023-03-21T00:41:10;30.10;;;14.20;;
4047;SDS011;2038;51.728;6.674;2023-03-21T00:43:38;18.77;;;13.60;;
4047;SDS011;2038;51.728;6.674;2023-03-21T00:46:05;26.20;;;12.70;;
4047;SDS011;2038;51.728;6.674;2023-03-21T00:48:32;20.93;;;11.90;;
4047;SDS011;2038;51.728;6.674;2023-03-21T00:50:58;25.27;;;12.03;;
4047;SDS011;2038;51.728;6.674;2023-03-21T00:53:25;22.77;;;12.70;;
4047;SDS011;2038;51.728;6.674;2023-03-21T00:55:53;28.87;;;13.53;;
4047;SDS011;2038;51.728;6.674;2023-03-21T00:58:19;21.63;;;13.40;;
4047;SDS011;2038;51.728;6.674;2023-03-21T01:00:45;29.37;;;12.90;;
4047;SDS011;2038;51.728;6.674;2023-03-21T01:03:12;35.73;;;13.77;;
4047;SDS011;2038;51.728;6.674;2023-03-21T01:05:42;33.03;;;13.63;;
4047;SDS011;2038;51.728;6.674;2023-03-21T01:08:28;24.90;;;14.00;;
4047;SDS011;2038;51.728;6.674;2023-03-21T01:10:59;24.43;;;12.80;;
4047;SDS011;2038;51.728;6.674;2023-03-21T01:13:33;31.20;;;13.03;;
4047;SDS011;2038;51.728;6.674;2023-03-21T01:16:00;22.00;;;12.63;;
4047;SDS011;2038;51.728;6.674;2023-03-21T01:18:29;24.27;;;13.93;;
4047;SDS011;2038;51.728;6.674;2023-03-21T01:20:57;25.70;;;13.07;;
4047;SDS011;2038;51.728;6.674;2023-03-21T01:23:26;22.13;;;12.47;;
4047;SDS011;2038;51.728;6.674;2023-03-21T01:25:54;17.73;;;11.33;;
4047;SDS011;2038;51.728;6.674;2023-03-21T01:28:22;22.90;;;13.47;;
4047;SDS011;2038;51.728;6.674;2023-03-21T01:30:52;21.23;;;12.53;;
4047;SDS011;2038;51.728;6.674;2023-03-21T01:33:19;21.30;;;13.47;;
4047;SDS011;2038;51.728;6.674;2023-03-21T01:35:47;25.20;;;15.13;;
4047;SDS011;2038;51.728;6.674;2023-03-21T01:38:14;33.23;;;14.27;;
4047;SDS011;2038;51.728;6.674;2023-03-21T01:40:40;27.07;;;13.27;;
4047;SDS011;2038;51.728;6.674;2023-03-21T01:43:16;35.43;;;13.90;;
4047;SDS011;2038;51.728;6.674;2023-03-21T01:46:07;27.50;;;13.30;;
4047;SDS011;2038;51.728;6.674;2023-03-21T01:48:52;19.87;;;12.00;;
4047;SDS011;2038;51.728;6.674;2023-03-21T01:51:25;21.87;;;13.20;;
4047;SDS011;2038;51.728;6.674;2023-03-21T01:53:54;24.63;;;12.60;;
4047;SDS011;2038;51.728;6.674;2023-03-21T01:56:23;17.67;;;12.20;;
4047;SDS011;2038;51.728;6.674;2023-03-21T01:58:58;19.80;;;11.40;;
4047;SDS011;2038;51.728;6.674;2023-03-21T02:01:35;21.30;;;11.77;;
4047;SDS011;2038;51.728;6.674;2023-03-21T02:04:02;22.07;;;12.30;;
4047;SDS011;2038;51.728;6.674;2023-03-21T02:06:35;24.40;;;13.37;;
4047;SDS011;2038;51.728;6.674;2023-03-21T02:09:11;22.20;;;11.53;;
4047;SDS011;2038;51.728;6.674;2023-03-21T02:11:47;17.87;;;11.37;;
4047;SDS011;2038;51.728;6.674;2023-03-21T02:14:15;23.87;;;13.23;;
4047;SDS011;2038;51.728;6.674;2023-03-21T02:16:48;23.87;;;13.33;;
4047;SDS011;2038;51.728;6.674;2023-03-21T02:28:56;19.60;;;10.40;;
4047;SDS011;2038;51.728;6.674;2023-03-21T02:32:10;22.30;;;11.57;;
4047;SDS011;2038;51.728;6.674;2023-03-21T02:38:42;26.53;;;11.37;;
4047;SDS011;2038;51.728;6.674;2023-03-21T02:41:31;24.73;;;13.40;;
4047;SDS011;2038;51.728;6.674;2023-03-21T02:44:18;23.10;;;11.30;;
4047;SDS011;2038;51.728;6.674;2023-03-21T02:46:58;25.97;;;11.87;;
4047;SDS011;2038;51.728;6.674;2023-03-21T02:49:57;17.20;;;10.90;;
4047;SDS011;2038;51.728;6.674;2023-03-21T02:52:44;23.70;;;11.93;;
4047;SDS011;2038;51.728;6.674;2023-03-21T02:55:14;32.13;;;13.20;;
4047;SDS011;2038;51.728;6.674;2023-03-21T02:57:48;21.33;;;13.80;;
4047;SDS011;2038;51.728;6.674;2023-03-21T03:00:19;27.63;;;15.47;;
4047;SDS011;2038;51.728;6.674;2023-03-21T03:02:50;22.73;;;14.00;;
4047;SDS011;2038;51.728;6.674;2023-03-21T03:05:19;23.93;;;12.73;;
4047;SDS011;2038;51.728;6.674;2023-03-21T03:13:53;19.80;;;12.73;;
4047;SDS011;2038;51.728;6.674;2023-03-21T03:23:01;30.63;;;13.60;;
4047;SDS011;2038;51.728;6.674;2023-03-21T03:26:24;18.93;;;13.53;;
4047;SDS011;2038;51.728;6.674;2023-03-21T03:29:16;30.17;;;14.27;;
4047;SDS011;2038;51.728;6.674;2023-03-21T03:31:54;22.10;;;13.03;;
4047;SDS011;2038;51.728;6.674;2023-03-21T03:34:31;22.10;;;13.80;;
4047;SDS011;2038;51.728;6.674;2023-03-21T03:37:05;22.93;;;12.13;;
4047;SDS011;2038;51.728;6.674;2023-03-21T03:39:43;27.13;;;12.77;;
4047;SDS011;2038;51.728;6.674;2023-03-21T03:42:26;24.70;;;13.10;;
4047;SDS011;2038;51.728;6.674;2023-03-21T03:45:06;19.70;;;11.77;;
4047;SDS011;2038;51.728;6.674;2023-03-21T03:53:00;24.43;;;13.53;;
4047;SDS011;2038;51.728;6.674;2023-03-21T03:55:56;28.73;;;13.97;;
4047;SDS011;2038;51.728;6.674;2023-03-21T03:58:25;22.90;;;13.80;;
4047;SDS011;2038;51.728;6.674;2023-03-21T04:00:53;24.97;;;13.30;;
4047;SDS011;2038;51.728;6.674;2023-03-21T04:03:20;33.77;;;13.40;;
4047;SDS011;2038;51.728;6.674;2023-03-21T04:05:47;27.53;;;14.37;;
4047;SDS011;2038;51.728;6.674;2023-03-21T04:08:14;21.50;;;12.17;;
4047;SDS011;2038;51.728;6.674;2023-03-21T04:10:41;24.67;;;13.73;;
4047;SDS011;2038;51.728;6.674;2023-03-21T04:13:08;33.33;;;14.00;;
4047;SDS011;2038;51.728;6.674;2023-03-21T04:15:35;26.33;;;12.23;;
4047;SDS011;2038;51.728;6.674;2023-03-21T04:18:01;18.93;;;12.20;;
4047;SDS011;2038;51.728;6.674;2023-03-21T04:20:28;20.37;;;11.83;;
4047;SDS011;2038;51.728;6.674;2023-03-21T04:22:54;24.77;;;12.57;;
4047;SDS011;2038;51.728;6.674;2023-03-21T04:25:21;22.00;;;13.13;;
4047;SDS011;2038;51.728;6.674;2023-03-21T04:27:47;31.13;;;13.73;;
4047;SDS011;2038;51.728;6.674;2023-03-21T04:30:14;25.73;;;13.17;;
4047;SDS011;2038;51.728;6.674;2023-03-21T04:32:40;33.37;;;13.50;;
4047;SDS011;2038;51.728;6.674;2023-03-21T04:35:08;24.27;;;12.27;;
4047;SDS011;2038;51.728;6.674;2023-03-21T04:37:35;26.63;;;13.23;;
4047;SDS011;2038;51.728;6.674;2023-03-21T04:40:03;26.00;;;13.10;;
4047;SDS011;2038;51.728;6.674;2023-03-21T04:42:31;32.80;;;12.87;;
4047;SDS011;2038;51.728;6.674;2023-03-21T04:44:59;37.10;;;14.80;;
4047;SDS011;2038;51.728;6.674;2023-03-21T04:47:26;19.30;;;12.17;;
4047;SDS011;2038;51.728;6.674;2023-03-21T04:49:53;17.97;;;13.20;;
4047;SDS011;2038;51.728;6.674;2023-03-21T04:52:20;19.30;;;13.10;;
4047;SDS011;2038;51.728;6.674;2023-03-21T04:54:47;18.73;;;12.43;;
4047;SDS011;2038;51.728;6.674;2023-03-21T04:57:13;23.87;;;12.70;;
4047;SDS011;2038;51.728;6.674;2023-03-21T04:59:39;18.63;;;13.37;;
4047;SDS011;2038;51.728;6.674;2023-03-21T05:02:05;24.27;;;13.53;;
4047;SDS011;2038;51.728;6.674;2023-03-21T05:04:32;29.50;;;14.70;;
4047;SDS011;2038;51.728;6.674;2023-03-21T05:06:58;29.57;;;13.80;;
4047;SDS011;2038;51.728;6.674;2023-03-21T05:09:24;21.50;;;13.37;;
4047;SDS011;2038;51.728;6.674;2023-03-21T05:11:50;28.53;;;14.40;;
4047;SDS011;2038;51.728;6.674;2023-03-21T05:14:17;27.80;;;12.70;;
4047;SDS011;2038;51.728;6.674;2023-03-21T05:16:48;28.53;;;13.73;;
4047;SDS011;2038;51.728;6.674;2023-03-21T05:19:24;21.30;;;12.63;;
4047;SDS011;2038;51.728;6.674;2023-03-21T05:21:59;24.83;;;14.00;;
4047;SDS011;2038;51.728;6.674;2023-03-21T05:24:32;32.63;;;13.80;;
4047;SDS011;2038;51.728;6.674;2023-03-21T05:27:01;21.50;;;12.17;;
4047;SDS011;2038;51.728;6.674;2023-03-21T05:29:28;24.00;;;12.47;;
4047;SDS011;2038;51.728;6.674;2023-03-21T05:31:56;23.73;;;12.20;;
4047;SDS011;2038;51.728;6.674;2023-03-21T05:34:24;21.97;;;12.83;;
4047;SDS011;2038;51.728;6.674;2023-03-21T05:36:51;22.23;;;12.93;;
4047;SDS011;2038;51.728;6.674;2023-03-21T05:39:18;26.03;;;13.87;;
4047;SDS011;2038;51.728;6.674;2023-03-21T05:41:44;29.70;;;13.73;;
4047;SDS011;2038;51.728;6.674;2023-03-21T05:44:10;28.47;;;13.27;;
4047;SDS011;2038;51.728;6.674;2023-03-21T05:46:36;22.33;;;14.27;;
4047;SDS011;2038;51.728;6.674;2023-03-21T05:49:02;18.00;;;13.13;;
4047;SDS011;2038;51.728;6.674;2023-03-21T05:51:28;29.37;;;12.57;;
4047;SDS011;2038;51.728;6.674;2023-03-21T05:53:54;26.23;;;13.43;;
4047;SDS011;2038;51.728;6.674;2023-03-21T05:56:20;20.50;;;14.90;;
4047;SDS011;2038;51.728;6.674;2023-03-21T05:58:46;19.47;;;11.43;;
4047;SDS011;2038;51.728;6.674;2023-03-21T06:01:12;21.63;;;13.07;;
4047;SDS011;2038;51.728;6.674;2023-03-21T06:03:38;23.30;;;12.73;;
4047;SDS011;2038;51.728;6.674;2023-03-21T06:06:04;24.23;;;11.93;;
4047;SDS011;2038;51.728;6.674;2023-03-21T06:08:31;25.27;;;13.40;;
4047;SDS011;2038;51.728;6.674;2023-03-21T06:10:57;22.90;;;13.63;;
4047;SDS011;2038;51.728;6.674;2023-03-21T06:13:23;25.10;;;12.13;;
4047;SDS011;2038;51.728;6.674;2023-03-21T06:15:49;27.10;;;13.93;;
4047;SDS011;2038;51.728;6.674;2023-03-21T06:18:15;24.40;;;13.27;;
4047;SDS011;2038;51.728;6.674;2023-03-21T06:20:41;21.23;;;14.17;;
4047;SDS011;2038;51.728;6.674;2023-03-21T06:23:06;20.77;;;12.60;;
4047;SDS011;2038;51.728;6.674;2023-03-21T06:25:32;26.63;;;14.13;;
4047;SDS011;2038;51.728;6.674;2023-03-21T06:27:58;27.07;;;12.70;;
4047;SDS011;2038;51.728;6.674;2023-03-21T06:30:24;27.57;;;13.70;;
4047;SDS011;2038;51.728;6.674;2023-03-21T06:32:50;22.93;;;12.27;;
4047;SDS011;2038;51.728;6.674;2023-03-21T06:35:16;17.80;;;12.20;;
4047;SDS011;2038;51.728;6.674;2023-03-21T06:37:42;26.23;;;12.20;;
4047;SDS011;2038;51.728;6.674;2023-03-21T06:40:10;25.70;;;13.90;;
4047;SDS011;2038;51.728;6.674;2023-03-21T06:42:37;24.27;;;14.10;;
4047;SDS011;2038;51.728;6.674;2023-03-21T06:45:03;26.03;;;14.43;;
4047;SDS011;2038;51.728;6.674;2023-03-21T06:47:30;24.33;;;13.30;;
4047;SDS011;2038;51.728;6.674;2023-03-21T06:49:56;23.93;;;13.67;;
4047;SDS011;2038;51.728;6.674;2023-03-21T06:52:22;28.60;;;13.50;;
4047;SDS011;2038;51.728;6.674;2023-03-21T06:54:47;25.30;;;15.77;;
4047;SDS011;2038;51.728;6.674;2023-03-21T06:57:15;21.43;;;13.23;;
4047;SDS011;2038;51.728;6.674;2023-03-21T06:59:42;18.90;;;12.43;;
4047;SDS011;2038;51.728;6.674;2023-03-21T07:02:09;28.23;;;14.93;;
4047;SDS011;2038;51.728;6.674;2023-03-21T07:04:35;23.93;;;15.40;;
4047;SDS011;2038;51.728;6.674;2023-03-21T07:07:01;22.03;;;13.23;;
4047;SDS011;2038;51.728;6.674;2023-03-21T07:09:27;32.90;;;13.50;;
4047;SDS011;2038;51.728;6.674;2023-03-21T07:11:53;20.53;;;13.30;;
4047;SDS011;2038;51.728;6.674;2023-03-21T07:14:19;20.00;;;12.13;;
4047;SDS011;2038;51.728;6.674;2023-03-21T07:16:45;26.47;;;13.07;;
4047;SDS011;2038;51.728;6.674;2023-03-21T07:19:11;24.63;;;13.23;;
4047;SDS011;2038;51.728;6.674;2023-03-21T07:21:36;33.50;;;15.20;;
4047;SDS011;2038;51.728;6.674;2023-03-21T07:24:02;25.03;;;14.23;;
4047;SDS011;2038;51.728;6.674;2023-03-21T07:26:28;21.63;;;13.37;;
4047;SDS011;2038;51.728;6.674;2023-03-21T07:28:54;28.90;;;12.60;;
4047;SDS011;2038;51.728;6.674;2023-03-21T07:31:20;25.77;;;12.23;;
4047;SDS011;2038;51.728;6.674;2023-03-21T07:33:49;23.20;;;12.60;;
4047;SDS011;2038;51.728;6.674;2023-03-21T07:36:15;17.90;;;11.47;;
4047;SDS011;2038;51.728;6.674;2023-03-21T07:38:42;23.13;;;13.47;;
4047;SDS011;2038;51.728;6.674;2023-03-21T07:41:10;23.67;;;11.43;;
4047;SDS011;2038;51.728;6.674;2023-03-21T07:43:37;23.50;;;12.30;;
4047;SDS011;2038;51.728;6.674;2023-03-21T07:46:03;30.73;;;11.77;;
4047;SDS011;2038;51.728;6.674;2023-03-21T07:48:30;20.73;;;9.90;;
4047;SDS011;2038;51.728;6.674;2023-03-21T07:50:56;18.77;;;10.50;;
4047;SDS011;2038;51.728;6.674;2023-03-21T07:53:22;21.10;;;10.87;;
4047;SDS011;2038;51.728;6.674;2023-03-21T07:55:49;22.60;;;10.70;;
4047;SDS011;2038;51.728;6.674;2023-03-21T07:58:17;19.17;;;10.93;;
4047;SDS011;2038;51.728;6.674;2023-03-21T08:00:43;19.83;;;10.43;;
4047;SDS011;2038;51.728;6.674;2023-03-21T08:03:09;18.30;;;11.83;;
4047;SDS011;2038;51.728;6.674;2023-03-21T08:05:35;25.03;;;11.53;;
4047;SDS011;2038;51.728;6.674;2023-03-21T08:08:03;18.10;;;10.00;;
4047;SDS011;2038;51.728;6.674;2023-03-21T08:10:30;15.47;;;10.43;;
4047;SDS011;2038;51.728;6.674;2023-03-21T08:12:58;22.43;;;9.30;;
4047;SDS011;2038;51.728;6.674;2023-03-21T08:15:24;25.00;;;10.50;;
4047;SDS011;2038;51.728;6.674;2023-03-21T08:17:50;22.83;;;10.10;;
4047;SDS011;2038;51.728;6.674;2023-03-21T08:20:17;18.53;;;11.27;;
4047;SDS011;2038;51.728;6.674;2023-03-21T08:22:46;19.10;;;10.30;;
4047;SDS011;2038;51.728;6.674;2023-03-21T08:25:14;18.47;;;10.67;;
4047;SDS011;2038;51.728;6.674;2023-03-21T08:27:43;21.63;;;10.93;;
4047;SDS011;2038;51.728;6.674;2023-03-21T08:30:11;18.60;;;9.63;;
4047;SDS011;2038;51.728;6.674;2023-03-21T08:32:42;17.43;;;10.47;;
4047;SDS011;2038;51.728;6.674;2023-03-21T08:35:10;18.40;;;11.23;;
4047;SDS011;2038;51.728;6.674;2023-03-21T08:37:39;23.60;;;10.30;;
4047;SDS011;2038;51.728;6.674;2023-03-21T08:40:09;16.67;;;10.83;;
4047;SDS011;2038;51.728;6.674;2023-03-21T08:42:39;21.13;;;11.03;;
4047;SDS011;2038;51.728;6.674;2023-03-21T08:45:06;23.40;;;11.07;;
4047;SDS011;2038;51.728;6.674;2023-03-21T08:47:34;22.67;;;12.17;;
4047;SDS011;2038;51.728;6.674;2023-03-21T08:50:01;19.73;;;11.03;;
4047;SDS011;2038;51.728;6.674;2023-03-21T08:52:30;19.70;;;10.80;;
4047;SDS011;2038;51.728;6.674;2023-03-21T08:54:57;26.10;;;12.33;;
4047;SDS011;2038;51.728;6.674;2023-03-21T08:57:23;19.57;;;10.33;;
4047;SDS011;2038;51.728;6.674;2023-03-21T08:59:50;17.40;;;10.53;;
4047;SDS011;2038;51.728;6.674;2023-03-21T09:02:16;22.80;;;10.57;;
4047;SDS011;2038;51.728;6.674;2023-03-21T09:04:42;18.47;;;10.50;;
4047;SDS011;2038;51.728;6.674;2023-03-21T09:07:09;16.10;;;9.57;;
4047;SDS011;2038;51.728;6.674;2023-03-21T09:09:39;21.13;;;10.13;;
4047;SDS011;2038;51.728;6.674;2023-03-21T09:12:05;26.33;;;11.40;;
4047;SDS011;2038;51.728;6.674;2023-03-21T09:14:32;19.30;;;10.50;;
4047;SDS011;2038;51.728;6.674;2023-03-21T09:16:59;22.27;;;10.33;;
4047;SDS011;2038;51.728;6.674;2023-03-21T09:19:25;20.47;;;11.77;;
4047;SDS011;2038;51.728;6.674;2023-03-21T09:21:52;18.83;;;10.13;;
4047;SDS011;2038;51.728;6.674;2023-03-21T09:24:19;22.90;;;10.90;;
4047;SDS011;2038;51.728;6.674;2023-03-21T09:26:46;20.20;;;10.37;;
4047;SDS011;2038;51.728;6.674;2023-03-21T09:29:14;18.70;;;10.63;;
4047;SDS011;2038;51.728;6.674;2023-03-21T09:31:43;25.07;;;11.10;;
4047;SDS011;2038;51.728;6.674;2023-03-21T09:34:11;21.73;;;10.77;;
4047;SDS011;2038;51.728;6.674;2023-03-21T09:36:39;17.23;;;9.20;;
4047;SDS011;2038;51.728;6.674;2023-03-21T09:39:08;17.53;;;10.63;;
4047;SDS011;2038;51.728;6.674;2023-03-21T09:41:38;17.50;;;9.40;;
4047;SDS011;2038;51.728;6.674;2023-03-21T09:44:30;21.70;;;9.77;;
4047;SDS011;2038;51.728;6.674;2023-03-21T09:47:22;19.70;;;9.93;;
4047;SDS011;2038;51.728;6.674;2023-03-21T09:50:00;20.47;;;10.10;;
4047;SDS011;2038;51.728;6.674;2023-03-21T09:52:56;17.00;;;9.40;;
4047;SDS011;2038;51.728;6.674;2023-03-21T09:55:59;14.20;;;8.33;;
4047;SDS011;2038;51.728;6.674;2023-03-21T09:58:29;13.67;;;9.27;;
4047;SDS011;2038;51.728;6.674;2023-03-21T10:03:59;11.93;;;8.37;;
4047;SDS011;2038;51.728;6.674;2023-03-21T10:06:31;12.97;;;8.50;;
4047;SDS011;2038;51.728;6.674;2023-03-21T10:09:05;10.30;;;7.13;;
4047;SDS011;2038;51.728;6.674;2023-03-21T10:11:58;15.40;;;7.57;;
4047;SDS011;2038;51.728;6.674;2023-03-21T10:14:45;16.13;;;8.33;;
4047;SDS011;2038;51.728;6.674;2023-03-21T10:17:28;18.17;;;8.20;;
4047;SDS011;2038;51.728;6.674;2023-03-21T10:20:13;12.10;;;7.73;;
4047;SDS011;2038;51.728;6.674;2023-03-21T10:22:47;12.30;;;8.30;;
4047;SDS011;2038;51.728;6.674;2023-03-21T10:25:21;9.60;;;6.33;;
4047;SDS011;2038;51.728;6.674;2023-03-21T10:28:03;14.77;;;7.80;;
4047;SDS011;2038;51.728;6.674;2023-03-21T10:30:38;17.40;;;6.57;;
4047;SDS011;2038;51.728;6.674;2023-03-21T10:33:10;14.13;;;6.93;;
4047;SDS011;2038;51.728;6.674;2023-03-21T10:36:08;17.27;;;8.10;;
4047;SDS011;2038;51.728;6.674;2023-03-21T10:38:45;14.10;;;6.80;;
4047;SDS011;2038;51.728;6.674;2023-03-21T10:41:14;10.40;;;7.83;;
4047;SDS011;2038;51.728;6.674;2023-03-21T10:43:41;11.13;;;7.43;;
4047;SDS011;2038;51.728;6.674;2023-03-21T10:46:11;14.83;;;8.30;;
4047;SDS011;2038;51.728;6.674;2023-03-21T10:48:48;17.63;;;8.30;;
4047;SDS011;2038;51.728;6.674;2023-03-21T10:51:19;14.97;;;7.37;;
4047;SDS011;2038;51.728;6.674;2023-03-21T10:53:52;17.33;;;9.50;;
4047;SDS011;2038;51.728;6.674;2023-03-21T10:56:25;15.70;;;8.60;;
4047;SDS011;2038;51.728;6.674;2023-03-21T10:58:56;19.23;;;9.70;;
4047;SDS011;2038;51.728;6.674;2023-03-21T11:01:28;13.97;;;7.80;;
4047;SDS011;2038;51.728;6.674;2023-03-21T11:04:05;16.70;;;8.03;;
4047;SDS011;2038;51.728;6.674;2023-03-21T11:06:38;16.60;;;9.10;;
4047;SDS011;2038;51.728;6.674;2023-03-21T11:09:14;16.73;;;9.67;;
4047;SDS011;2038;51.728;6.674;2023-03-21T11:12:01;17.43;;;9.60;;
4047;SDS011;2038;51.728;6.674;2023-03-21T11:14:39;15.23;;;9.70;;
4047;SDS011;2038;51.728;6.674;2023-03-21T11:17:22;14.00;;;8.80;;
4047;SDS011;2038;51.728;6.674;2023-03-21T11:19:57;16.07;;;10.87;;
4047;SDS011;2038;51.728;6.674;2023-03-21T11:22:30;15.17;;;8.53;;
4047;SDS011;2038;51.728;6.674;2023-03-21T11:25:09;21.50;;;10.20;;
4047;SDS011;2038;51.728;6.674;2023-03-21T11:27:54;18.83;;;8.73;;
4047;SDS011;2038;51.728;6.674;2023-03-21T11:30:24;13.87;;;7.80;;
4047;SDS011;2038;51.728;6.674;2023-03-21T11:32:55;16.30;;;7.70;;
4047;SDS011;2038;51.728;6.674;2023-03-21T11:35:27;17.37;;;7.90;;
4047;SDS011;2038;51.728;6.674;2023-03-21T11:38:03;12.60;;;8.00;;
4047;SDS011;2038;51.728;6.674;2023-03-21T11:40:55;18.13;;;7.30;;
4047;SDS011;2038;51.728;6.674;2023-03-21T11:43:26;12.30;;;7.60;;
4047;SDS011;2038;51.728;6.674;2023-03-21T11:45:57;12.80;;;7.87;;
4047;SDS011;2038;51.728;6.674;2023-03-21T11:48:29;15.07;;;8.70;;
4047;SDS011;2038;51.728;6.674;2023-03-21T11:54:27;15.70;;;8.40;;
4047;SDS011;2038;51.728;6.674;2023-03-21T11:57:01;11.87;;;8.90;;
4047;SDS011;2038;51.728;6.674;2023-03-21T11:59:49;11.30;;;7.70;;
4047;SDS011;2038;51.728;6.674;2023-03-21T12:02:44;13.83;;;9.23;;
4047;SDS011;2038;51.728;6.674;2023-03-21T12:05:35;18.50;;;10.03;;
4047;SDS011;2038;51.728;6.674;2023-03-21T12:08:31;21.63;;;10.97;;
4047;SDS011;2038;51.728;6.674;2023-03-21T12:11:31;21.60;;;11.90;;
4047;SDS011;2038;51.728;6.674;2023-03-21T12:14:44;21.57;;;11.63;;
4047;SDS011;2038;51.728;6.674;2023-03-21T12:17:35;19.10;;;11.07;;
4047;SDS011;2038;51.728;6.674;2023-03-21T12:20:33;23.70;;;10.67;;
4047;SDS011;2038;51.728;6.674;2023-03-21T12:26:22;19.33;;;11.13;;
4047;SDS011;2038;51.728;6.674;2023-03-21T12:43:41;14.07;;;9.53;;
4047;SDS011;2038;51.728;6.674;2023-03-21T12:46:36;12.43;;;9.00;;
4047;SDS011;2038;51.728;6.674;2023-03-21T12:52:01;20.27;;;9.20;;
4047;SDS011;2038;51.728;6.674;2023-03-21T12:54:38;13.80;;;9.07;;
4047;SDS011;2038;51.728;6.674;2023-03-21T12:57:25;14.13;;;8.70;;
4047;SDS011;2038;51.728;6.674;2023-03-21T13:00:04;17.10;;;9.03;;
4047;SDS011;2038;51.728;6.674;2023-03-21T13:02:52;17.90;;;9.10;;
4047;SDS011;2038;51.728;6.674;2023-03-21T13:05:55;16.33;;;10.50;;
4047;SDS011;2038;51.728;6.674;2023-03-21T13:11:09;13.13;;;9.73;;
4047;SDS011;2038;51.728;6.674;2023-03-21T13:16:32;14.97;;;9.87;;
4047;SDS011;2038;51.728;6.674;2023-03-21T13:19:18;12.90;;;8.70;;
4047;SDS011;2038;51.728;6.674;2023-03-21T13:22:20;14.50;;;9.10;;
4047;SDS011;2038;51.728;6.674;2023-03-21T13:25:01;16.30;;;8.60;;
4047;SDS011;2038;51.728;6.674;2023-03-21T13:27:33;17.20;;;9.40;;
4047;SDS011;2038;51.728;6.674;2023-03-21T13:30:17;15.20;;;9.40;;
4047;SDS011;2038;51.728;6.674;2023-03-21T13:33:02;18.13;;;8.87;;
4047;SDS011;2038;51.728;6.674;2023-03-21T13:35:36;14.63;;;8.53;;
4047;SDS011;2038;51.728;6.674;2023-03-21T13:38:11;13.47;;;9.57;;
4047;SDS011;2038;51.728;6.674;2023-03-21T13:40:47;18.43;;;10.70;;
4047;SDS011;2038;51.728;6.674;2023-03-21T13:54:16;16.27;;;9.60;;
4047;SDS011;2038;51.728;6.674;2023-03-21T13:56:57;11.90;;;9.00;;
4047;SDS011;2038;51.728;6.674;2023-03-21T14:04:46;18.10;;;9.13;;
4047;SDS011;2038;51.728;6.674;2023-03-21T14:07:30;15.17;;;8.83;;
4047;SDS011;2038;51.728;6.674;2023-03-21T14:10:07;16.93;;;9.20;;
4047;SDS011;2038;51.728;6.674;2023-03-21T14:13:01;11.90;;;7.90;;
4047;SDS011;2038;51.728;6.674;2023-03-21T14:15:37;13.53;;;8.93;;
4047;SDS011;2038;51.728;6.674;2023-03-21T14:18:15;12.63;;;8.03;;
4047;SDS011;2038;51.728;6.674;2023-03-21T14:20:53;15.57;;;9.00;;
4047;SDS011;2038;51.728;6.674;2023-03-21T14:23:22;13.83;;;8.23;;
4047;SDS011;2038;51.728;6.674;2023-03-21T14:25:49;9.67;;;8.67;;
4047;SDS011;2038;51.728;6.674;2023-03-21T14:30:54;9.13;;;7.77;;
4047;SDS011;2038;51.728;6.674;2023-03-21T14:33:31;12.60;;;8.83;;
4047;SDS011;2038;51.728;6.674;2023-03-21T14:36:06;16.20;;;9.23;;
4047;SDS011;2038;51.728;6.674;2023-03-21T14:38:42;9.83;;;8.50;;
4047;SDS011;2038;51.728;6.674;2023-03-21T14:41:23;13.90;;;9.00;;
4047;SDS011;2038;51.728;6.674;2023-03-21T14:46:49;16.67;;;9.70;;
4047;SDS011;2038;51.728;6.674;2023-03-21T14:49:30;11.13;;;8.80;;
4047;SDS011;2038;51.728;6.674;2023-03-21T14:52:00;16.57;;;10.90;;
4047;SDS011;2038;51.728;6.674;2023-03-21T14:54:44;15.80;;;10.13;;
4047;SDS011;2038;51.728;6.674;2023-03-21T14:57:14;13.40;;;9.57;;
4047;SDS011;2038;51.728;6.674;2023-03-21T14:59:47;17.63;;;10.33;;
4047;SDS011;2038;51.728;6.674;2023-03-21T15:04:50;15.83;;;10.10;;
4047;SDS011;2038;51.728;6.674;2023-03-21T15:10:04;16.00;;;9.17;;
4047;SDS011;2038;51.728;6.674;2023-03-21T15:12:48;16.77;;;9.30;;
4047;SDS011;2038;51.728;6.674;2023-03-21T15:15:18;21.10;;;9.80;;
4047;SDS011;2038;51.728;6.674;2023-03-21T15:17:46;12.87;;;9.20;;
4047;SDS011;2038;51.728;6.674;2023-03-21T15:20:17;11.90;;;8.97;;
4047;SDS011;2038;51.728;6.674;2023-03-21T15:22:51;10.13;;;8.53;;
4047;SDS011;2038;51.728;6.674;2023-03-21T15:25:27;15.93;;;8.47;;
4047;SDS011;2038;51.728;6.674;2023-03-21T15:27:58;10.33;;;7.23;;
4047;SDS011;2038;51.728;6.674;2023-03-21T15:30:27;9.83;;;7.60;;
4047;SDS011;2038;51.728;6.674;2023-03-21T15:32:57;11.33;;;7.70;;
4047;SDS011;2038;51.728;6.674;2023-03-21T15:35:37;9.53;;;8.27;;
4047;SDS011;2038;51.728;6.674;2023-03-21T15:38:19;11.73;;;7.73;;
4047;SDS011;2038;51.728;6.674;2023-03-21T15:46:45;9.87;;;7.03;;
4047;SDS011;2038;51.728;6.674;2023-03-21T15:51:41;10.13;;;6.00;;
4047;SDS011;2038;51.728;6.674;2023-03-21T15:54:13;7.00;;;5.73;;
4047;SDS011;2038;51.728;6.674;2023-03-21T15:56:54;14.40;;;7.10;;
4047;SDS011;2038;51.728;6.674;2023-03-21T15:59:30;18.33;;;8.03;;
4047;SDS011;2038;51.728;6.674;2023-03-21T16:02:02;12.50;;;5.77;;
4047;SDS011;2038;51.728;6.674;2023-03-21T16:04:52;6.90;;;5.43;;
4047;SDS011;2038;51.728;6.674;2023-03-21T16:07:52;6.00;;;4.47;;
4047;SDS011;2038;51.728;6.674;2023-03-21T16:10:28;7.17;;;4.50;;
4047;SDS011;2038;51.728;6.674;2023-03-21T16:13:03;5.93;;;4.30;;
4047;SDS011;2038;51.728;6.674;2023-03-21T16:15:30;10.00;;;4.90;;
4047;SDS011;2038;51.728;6.674;2023-03-21T16:17:58;5.87;;;4.57;;
4047;SDS011;2038;51.728;6.674;2023-03-21T16:20:30;11.70;;;6.70;;
4047;SDS011;2038;51.728;6.674;2023-03-21T16:23:05;8.30;;;6.17;;
4047;SDS011;2038;51.728;6.674;2023-03-21T16:25:34;11.70;;;6.87;;
4047;SDS011;2038;51.728;6.674;2023-03-21T16:28:01;14.70;;;7.07;;
4047;SDS011;2038;51.728;6.674;2023-03-21T16:30:27;15.10;;;8.20;;
4047;SDS011;2038;51.728;6.674;2023-03-21T16:32:54;9.30;;;6.40;;
4047;SDS011;2038;51.728;6.674;2023-03-21T16:35:21;8.70;;;5.23;;
4047;SDS011;2038;51.728;6.674;2023-03-21T16:37:48;4.97;;;4.33;;
4047;SDS011;2038;51.728;6.674;2023-03-21T16:40:23;8.97;;;5.10;;
4047;SDS011;2038;51.728;6.674;2023-03-21T16:42:58;5.63;;;4.23;;
4047;SDS011;2038;51.728;6.674;2023-03-21T16:45:25;8.97;;;4.30;;
4047;SDS011;2038;51.728;6.674;2023-03-21T16:47:53;7.73;;;4.10;;
4047;SDS011;2038;51.728;6.674;2023-03-21T16:50:21;6.00;;;4.63;;
4047;SDS011;2038;51.728;6.674;2023-03-21T16:52:53;8.50;;;4.40;;
4047;SDS011;2038;51.728;6.674;2023-03-21T16:55:20;7.80;;;5.03;;
4047;SDS011;2038;51.728;6.674;2023-03-21T16:57:47;11.13;;;4.43;;
4047;SDS011;2038;51.728;6.674;2023-03-21T17:00:19;14.93;;;5.97;;
4047;SDS011;2038;51.728;6.674;2023-03-21T17:02:49;16.03;;;7.50;;
4047;SDS011;2038;51.728;6.674;2023-03-21T17:05:17;14.67;;;7.33;;